Urb Monte Elena, Puerto Rico
Current Conditions -  °F | °C
As of 5:56 PM on Monday 20 Oct 2014 (Local Time) from TJSJ Reporting Station
Broken Clouds Broken Clouds  
Wind Chill: 82°   Ceiling: 9000
Heat Index: 90°   Visibility: 10mi
Dew Point: 77°   Wind: 5mph
Humidity: 85%   Direction: 70°ENE
Pressure: 29.93"   Gusts: NA
Location:  18.4598°N, 66.2592°W
Report Text: TJSJ 202156Z 07004KT 10SM SCT026 SCT043 BKN090 28/25 A2993 RMK AO2 SLP133 T02780250
Loading
Personal Weather Stations






























Interactive Weather Map
Tropical Storm Tracking
New forecast layout! Learn more

10-Day Weather Forecast

Advertisements
Track Severe Weather on mobile